• Join FlightAware (Why Join?)
  • Login
  • US Flag 
03:29AM EDT


 

Airport Tracker/Info


-or-


 

Live Flight TrackerFlight Track Log ✈ N449ND ✈ 22-Mar-2014 ✈ KFPR - KFPR

Flight Track Log - Related Links

Times and Time Zones

All times are in EDT time to prevent confusion due to time zone crossing. See the N449ND flight status page for this flight to view local times or setup timezone preferences in your user account.

Time Position Orientation Groundspeed Altitude Reporting Facility
EDT Latitude Longitude Course Direction KTS MPH feet Rate Location/Type
11:36AM 27.4986 -80.3406 84° East 100 115 700  Level Miami Center
11:37AM 27.5014 -80.3125 84° East 87 100 1,400 600 Climbing Miami Center
11:38AM 27.5042 -80.2847 84° East 87 100 1,900 420 Climbing Miami Center
11:39AM 27.5069 -80.2567 84° East 87 100 2,300 420 Climbing Miami Center
11:40AM 27.5097 -80.2286 84° East 87 100 2,800 180 Climbing Miami Center
11:41AM 27.4953 -80.2164 143° Southeast 61 70 2,700 -360 Descending Miami Center
11:42AM 27.5094 -80.2403 304° West 31 36 2,100 -360 Descending Miami Center
11:43AM 27.5256 -80.2619 310° West 81 93 2,000 -60 Descending Miami Center
11:44AM 27.5531 -80.2464 27° Northeast 92 106 2,000  Level Miami Center
11:45AM 27.5825 -80.2331 22° Northeast 110 127 2,000 -180 Level Miami Center
11:46AM 27.6008 -80.2594 308° West 83 96 1,700 -300 Descending Miami Center
11:47AM 27.6106 -80.2900 290° West 98 113 1,400 -120 Descending Miami Center
11:48AM 27.6203 -80.3208 290° West 108 124 1,500 -60 Climbing Miami Center
11:49AM 27.6300 -80.3447 295° West 103 119 1,300 -360 Descending Miami Center
11:50AM 27.6397 -80.3731 291° West 103 119 800 -240 Descending Miami Center
11:51AM 27.6539 -80.3944 307° West 84 97 900 420 Climbing Miami Center
11:52AM 27.7000 -80.3914 North 98 113 2,000 420 Climbing Miami Center
11:53AM 27.7333 -80.3875 North 111 128 2,000 180 Level Miami Center
11:54AM 27.7647 -80.3861 North 116 133 2,400 360 Climbing Miami Center
11:55AM 27.7747 -80.4031 304° West 80 92 2,800 300 Climbing Miami Center
11:56AM 27.7597 -80.4214 227° Southwest 63 72 3,000 60 Climbing Miami Center
11:57AM 27.7403 -80.4442 226° Southwest 93 107 3,000  Level Miami Center
11:58AM 27.7253 -80.4625 227° Southwest 88 101 3,000  Level Miami Center
11:59AM 27.7103 -80.4783 223° Southwest 88 101 3,000  Level Miami Center
12:00PM 27.6953 -80.4967 227° Southwest 88 101 3,000  Level Miami Center
12:01PM 27.6758 -80.5194 226° Southwest 88 101 3,100 300 Climbing Miami Center
12:02PM 27.6628 -80.5356 228° Southwest 88 101 3,600 60 Climbing Miami Center
12:03PM 27.6397 -80.5419 194° South 83 96 3,300 -300 Descending Miami Center
12:04PM 27.6208 -80.5436 184° South 83 96 3,000 -180 Descending Miami Center
12:05PM 27.5978 -80.5475 189° South 88 101 3,000 -120 Level Miami Center
12:06PM 27.5728 -80.5514 188° South 88 101 2,800 -480 Descending Miami Center
12:07PM 27.5497 -80.5575 193° South 88 101 2,100 -420 Descending Miami Center
12:08PM 27.5286 -80.5617 190° South 81 93 2,000 -60 Descending Miami Center
12:09PM 27.5078 -80.5586 173° South 76 87 2,000  Level Miami Center
12:10PM 27.5003 -80.5256 104° East 82 94 2,000 -120 Level Miami Center
12:11PM 27.4992 -80.4858 92° East 110 127 1,800 -300 Descending Miami Center
12:12PM 27.4978 -80.4553 93° East 110 127 1,400 -480 Descending Miami Center
12:13PM 27.4967 -80.4225 92° East 104 120 900 -540 Descending Miami Center